sensor_id;sensor_type;location;lat;lon;timestamp;pressure;altitude;pressure_sealevel;temperature;humidity
54262;BME280;40174;52.364;6.452;2024-01-30T00:02:12;102365.16;;;4.70;100.00
54262;BME280;40174;52.364;6.452;2024-01-30T00:04:38;102364.28;;;4.71;100.00
54262;BME280;40174;52.364;6.452;2024-01-30T00:07:06;102369.59;;;4.68;100.00
54262;BME280;40174;52.364;6.452;2024-01-30T00:09:33;102371.50;;;4.63;100.00
54262;BME280;40174;52.364;6.452;2024-01-30T00:11:59;102360.09;;;4.64;100.00
54262;BME280;40174;52.364;6.452;2024-01-30T00:14:26;102361.91;;;4.62;100.00
54262;BME280;40174;52.364;6.452;2024-01-30T00:16:53;102357.69;;;4.57;100.00
54262;BME280;40174;52.364;6.452;2024-01-30T00:19:19;102361.16;;;4.58;100.00
54262;BME280;40174;52.364;6.452;2024-01-30T00:21:46;102352.59;;;4.53;100.00
54262;BME280;40174;52.364;6.452;2024-01-30T00:24:14;102352.66;;;4.51;100.00
54262;BME280;40174;52.364;6.452;2024-01-30T00:26:41;102349.22;;;4.49;100.00
54262;BME280;40174;52.364;6.452;2024-01-30T00:29:08;102354.56;;;4.46;100.00
54262;BME280;40174;52.364;6.452;2024-01-30T00:31:35;102347.63;;;4.44;100.00
54262;BME280;40174;52.364;6.452;2024-01-30T00:34:01;102352.84;;;4.44;100.00
54262;BME280;40174;52.364;6.452;2024-01-30T00:36:28;102354.81;;;4.37;100.00
54262;BME280;40174;52.364;6.452;2024-01-30T00:38:55;102347.06;;;4.34;100.00
54262;BME280;40174;52.364;6.452;2024-01-30T00:41:23;102342.81;;;4.30;100.00
54262;BME280;40174;52.364;6.452;2024-01-30T00:43:50;102351.56;;;4.29;100.00
54262;BME280;40174;52.364;6.452;2024-01-30T00:46:16;102352.56;;;4.25;100.00
54262;BME280;40174;52.364;6.452;2024-01-30T00:48:43;102357.84;;;4.23;100.00
54262;BME280;40174;52.364;6.452;2024-01-30T00:51:09;102364.94;;;4.20;100.00
54262;BME280;40174;52.364;6.452;2024-01-30T00:53:36;102357.13;;;4.18;100.00
54262;BME280;40174;52.364;6.452;2024-01-30T00:56:03;102356.34;;;4.14;100.00
54262;BME280;40174;52.364;6.452;2024-01-30T00:58:31;102352.88;;;4.14;100.00
54262;BME280;40174;52.364;6.452;2024-01-30T01:00:58;102363.38;;;4.12;100.00
54262;BME280;40174;52.364;6.452;2024-01-30T01:03:24;102352.91;;;4.12;100.00
54262;BME280;40174;52.364;6.452;2024-01-30T01:05:51;102353.81;;;4.11;100.00
54262;BME280;40174;52.364;6.452;2024-01-30T01:08:17;102353.81;;;4.11;100.00
54262;BME280;40174;52.364;6.452;2024-01-30T01:10:45;102352.91;;;4.12;100.00
54262;BME280;40174;52.364;6.452;2024-01-30T01:13:12;102351.31;;;4.08;100.00
54262;BME280;40174;52.364;6.452;2024-01-30T01:15:40;102348.75;;;4.05;100.00
54262;BME280;40174;52.364;6.452;2024-01-30T01:18:07;102350.53;;;4.05;100.00
54262;BME280;40174;52.364;6.452;2024-01-30T01:20:33;102351.47;;;4.02;100.00
54262;BME280;40174;52.364;6.452;2024-01-30T01:23:00;102341.00;;;4.02;100.00
54262;BME280;40174;52.364;6.452;2024-01-30T01:25:26;102350.56;;;4.03;100.00
54262;BME280;40174;52.364;6.452;2024-01-30T01:27:53;102359.22;;;4.05;100.00
54262;BME280;40174;52.364;6.452;2024-01-30T01:30:19;102349.72;;;4.03;100.00
54262;BME280;40174;52.364;6.452;2024-01-30T01:32:49;102347.09;;;4.03;100.00
54262;BME280;40174;52.364;6.452;2024-01-30T01:35:21;102351.47;;;4.02;100.00
54262;BME280;40174;52.364;6.452;2024-01-30T01:37:48;102350.69;;;3.99;100.00
54262;BME280;40174;52.364;6.452;2024-01-30T01:40:20;102342.84;;;3.99;100.00
54262;BME280;40174;52.364;6.452;2024-01-30T01:42:47;102356.84;;;3.98;100.00
54262;BME280;40174;52.364;6.452;2024-01-30T01:45:14;102341.03;;;4.01;100.00
54262;BME280;40174;52.364;6.452;2024-01-30T01:47:41;102342.66;;;4.05;100.00
54262;BME280;40174;52.364;6.452;2024-01-30T01:50:09;102352.28;;;4.04;100.00
54262;BME280;40174;52.364;6.452;2024-01-30T01:52:36;102346.22;;;4.04;100.00
54262;BME280;40174;52.364;6.452;2024-01-30T01:55:04;102338.34;;;4.04;100.00
54262;BME280;40174;52.364;6.452;2024-01-30T01:57:33;102342.78;;;4.02;100.00
54262;BME280;40174;52.364;6.452;2024-01-30T02:00:00;102339.25;;;4.03;100.00
54262;BME280;40174;52.364;6.452;2024-01-30T02:02:30;102333.13;;;4.04;100.00
54262;BME280;40174;52.364;6.452;2024-01-30T02:04:57;102337.41;;;4.06;100.00
54262;BME280;40174;52.364;6.452;2024-01-30T02:07:25;102329.56;;;4.06;100.00
54262;BME280;40174;52.364;6.452;2024-01-30T02:09:51;102333.69;;;4.13;100.00
54262;BME280;40174;52.364;6.452;2024-01-30T02:12:18;102319.91;;;4.08;100.00
54262;BME280;40174;52.364;6.452;2024-01-30T02:14:45;102326.94;;;4.06;100.00
54262;BME280;40174;52.364;6.452;2024-01-30T02:17:12;102326.00;;;4.09;100.00
54262;BME280;40174;52.364;6.452;2024-01-30T02:19:38;102318.13;;;4.09;100.00
54262;BME280;40174;52.364;6.452;2024-01-30T02:22:07;102319.81;;;4.11;100.00
54262;BME280;40174;52.364;6.452;2024-01-30T02:24:34;102306.88;;;4.05;100.00
54262;BME280;40174;52.364;6.452;2024-01-30T02:27:00;102312.88;;;4.10;100.00
54262;BME280;40174;52.364;6.452;2024-01-30T02:29:27;102299.16;;;4.02;100.00
54262;BME280;40174;52.364;6.452;2024-01-30T02:31:54;102303.53;;;4.02;100.00
54262;BME280;40174;52.364;6.452;2024-01-30T02:34:20;102304.47;;;3.99;100.00
54262;BME280;40174;52.364;6.452;2024-01-30T02:36:47;102298.38;;;3.99;100.00
54262;BME280;40174;52.364;6.452;2024-01-30T02:39:15;102293.19;;;3.97;100.00
54262;BME280;40174;52.364;6.452;2024-01-30T02:41:41;102300.13;;;3.98;100.00
54262;BME280;40174;52.364;6.452;2024-01-30T02:44:08;102298.44;;;3.97;100.00
54262;BME280;40174;52.364;6.452;2024-01-30T02:46:34;102285.34;;;3.97;100.00
54262;BME280;40174;52.364;6.452;2024-01-30T02:49:01;102299.34;;;3.94;100.00
54262;BME280;40174;52.364;6.452;2024-01-30T02:51:28;102292.56;;;3.89;100.00
54262;BME280;40174;52.364;6.452;2024-01-30T02:53:54;102295.28;;;3.86;100.00
54262;BME280;40174;52.364;6.452;2024-01-30T02:56:22;102278.63;;;3.88;100.00
54262;BME280;40174;52.364;6.452;2024-01-30T02:58:49;102285.59;;;3.88;100.00
54262;BME280;40174;52.364;6.452;2024-01-30T03:01:16;102290.75;;;3.91;100.00
54262;BME280;40174;52.364;6.452;2024-01-30T03:03:42;102275.94;;;3.90;100.00
54262;BME280;40174;52.364;6.452;2024-01-30T03:06:09;102275.94;;;3.90;100.00
54262;BME280;40174;52.364;6.452;2024-01-30T03:08:35;102279.38;;;3.92;100.00
54262;BME280;40174;52.364;6.452;2024-01-30T03:11:03;102275.03;;;3.92;100.00
54262;BME280;40174;52.364;6.452;2024-01-30T03:13:31;102266.34;;;3.90;100.00
54262;BME280;40174;52.364;6.452;2024-01-30T03:15:58;102275.06;;;3.91;100.00
54262;BME280;40174;52.364;6.452;2024-01-30T03:18:24;102281.09;;;3.93;100.00
54262;BME280;40174;52.364;6.452;2024-01-30T03:20:51;102274.09;;;3.93;100.00
54262;BME280;40174;52.364;6.452;2024-01-30T03:23:17;102265.41;;;3.93;100.00
54262;BME280;40174;52.364;6.452;2024-01-30T03:25:44;102271.59;;;3.90;100.00
54262;BME280;40174;52.364;6.452;2024-01-30T03:28:11;102274.25;;;3.89;100.00
54262;BME280;40174;52.364;6.452;2024-01-30T03:30:39;102264.72;;;3.86;100.00
54262;BME280;40174;52.364;6.452;2024-01-30T03:33:05;102266.34;;;3.90;100.00
54262;BME280;40174;52.364;6.452;2024-01-30T03:35:32;102264.56;;;3.92;100.00
54262;BME280;40174;52.364;6.452;2024-01-30T03:37:58;102253.28;;;3.90;100.00
54262;BME280;40174;52.364;6.452;2024-01-30T03:40:25;102255.94;;;3.89;100.00
54262;BME280;40174;52.364;6.452;2024-01-30T03:42:51;102261.16;;;3.89;100.00
54262;BME280;40174;52.364;6.452;2024-01-30T03:45:18;102259.34;;;3.91;100.00
54262;BME280;40174;52.364;6.452;2024-01-30T03:47:47;102252.47;;;3.88;100.00
54262;BME280;40174;52.364;6.452;2024-01-30T03:50:13;102261.13;;;3.90;100.00
54262;BME280;40174;52.364;6.452;2024-01-30T03:52:40;102256.78;;;3.89;100.00
54262;BME280;40174;52.364;6.452;2024-01-30T03:55:07;102264.66;;;3.88;100.00
54262;BME280;40174;52.364;6.452;2024-01-30T03:57:34;102257.03;;;3.82;100.00
54262;BME280;40174;52.364;6.452;2024-01-30T04:00:00;102257.75;;;3.85;100.00
54262;BME280;40174;52.364;6.452;2024-01-30T04:02:37;102251.59;;;3.88;100.00
54262;BME280;40174;52.364;6.452;2024-01-30T04:05:06;102255.09;;;3.88;100.00
54262;BME280;40174;52.364;6.452;2024-01-30T04:07:32;102245.47;;;3.89;100.00
54262;BME280;40174;52.364;6.452;2024-01-30T04:09:59;102237.34;;;3.98;100.00
54262;BME280;40174;52.364;6.452;2024-01-30T04:12:26;102238.25;;;3.97;100.00
54262;BME280;40174;52.364;6.452;2024-01-30T04:14:52;102224.38;;;3.95;100.00
54262;BME280;40174;52.364;6.452;2024-01-30T04:17:19;102224.38;;;3.95;100.00
54262;BME280;40174;52.364;6.452;2024-01-30T04:19:46;102222.56;;;3.97;100.00
54262;BME280;40174;52.364;6.452;2024-01-30T04:22:14;102220.69;;;4.01;100.00
54262;BME280;40174;52.364;6.452;2024-01-30T04:24:40;102224.97;;;4.03;100.00
54262;BME280;40174;52.364;6.452;2024-01-30T04:27:08;102218.03;;;4.02;100.00
54262;BME280;40174;52.364;6.452;2024-01-30T04:29:34;102210.94;;;4.06;100.00
54262;BME280;40174;52.364;6.452;2024-01-30T04:32:01;102208.13;;;4.12;100.00
54262;BME280;40174;52.364;6.452;2024-01-30T04:34:28;102207.16;;;4.14;100.00
54262;BME280;40174;52.364;6.452;2024-01-30T04:36:54;102211.69;;;4.09;100.00
54262;BME280;40174;52.364;6.452;2024-01-30T04:39:22;102217.88;;;4.07;100.00
54262;BME280;40174;52.364;6.452;2024-01-30T04:41:49;102216.09;;;4.09;100.00
54262;BME280;40174;52.364;6.452;2024-01-30T04:44:15;102215.03;;;4.14;100.00
54262;BME280;40174;52.364;6.452;2024-01-30T04:46:42;102225.44;;;4.16;100.00
54262;BME280;40174;52.364;6.452;2024-01-30T04:49:09;102217.41;;;4.22;100.00
54262;BME280;40174;52.364;6.452;2024-01-30T04:51:35;102214.69;;;4.25;100.00
54262;BME280;40174;52.364;6.452;2024-01-30T04:54:02;102216.31;;;4.29;100.00
54262;BME280;40174;52.364;6.452;2024-01-30T04:56:30;102215.34;;;4.32;100.00
54262;BME280;40174;52.364;6.452;2024-01-30T04:58:57;102220.50;;;4.35;100.00
54262;BME280;40174;52.364;6.452;2024-01-30T05:01:23;102224.88;;;4.34;100.00
54262;BME280;40174;52.364;6.452;2024-01-30T05:03:50;102221.34;;;4.35;100.00
54262;BME280;40174;52.364;6.452;2024-01-30T05:06:24;102223.81;;;4.40;100.00
54262;BME280;40174;52.364;6.452;2024-01-30T05:08:50;102220.25;;;4.43;100.00
54262;BME280;40174;52.364;6.452;2024-01-30T05:11:17;102218.25;;;4.51;100.00
54262;BME280;40174;52.364;6.452;2024-01-30T05:13:46;102220.88;;;4.51;100.00
54262;BME280;40174;52.364;6.452;2024-01-30T05:16:13;102226.03;;;4.52;100.00
54262;BME280;40174;52.364;6.452;2024-01-30T05:18:39;102217.22;;;4.55;100.00
54262;BME280;40174;52.364;6.452;2024-01-30T05:21:06;102222.41;;;4.56;100.00
54262;BME280;40174;52.364;6.452;2024-01-30T05:23:33;102222.31;;;4.59;100.00
54262;BME280;40174;52.364;6.452;2024-01-30T05:25:59;102218.78;;;4.61;100.00
54262;BME280;40174;52.364;6.452;2024-01-30T05:28:26;102211.63;;;4.66;100.00
54262;BME280;40174;52.364;6.452;2024-01-30T05:30:54;102212.63;;;4.62;100.00
54262;BME280;40174;52.364;6.452;2024-01-30T05:33:20;102203.03;;;4.62;100.00
54262;BME280;40174;52.364;6.452;2024-01-30T05:35:47;102208.19;;;4.64;100.00
54262;BME280;40174;52.364;6.452;2024-01-30T05:38:16;102208.16;;;4.65;100.00
54262;BME280;40174;52.364;6.452;2024-01-30T05:40:42;102202.97;;;4.64;100.00
54262;BME280;40174;52.364;6.452;2024-01-30T05:43:09;102192.50;;;4.64;100.00
54262;BME280;40174;52.364;6.452;2024-01-30T05:45:35;102194.13;;;4.66;100.00
54262;BME280;40174;52.364;6.452;2024-01-30T05:48:04;102197.56;;;4.68;100.00
54262;BME280;40174;52.364;6.452;2024-01-30T05:50:31;102201.91;;;4.69;100.00
54262;BME280;40174;52.364;6.452;2024-01-30T05:52:58;102201.00;;;4.70;100.00
54262;BME280;40174;52.364;6.452;2024-01-30T05:55:24;102200.09;;;4.71;100.00
54262;BME280;40174;52.364;6.452;2024-01-30T05:57:51;102202.56;;;4.76;100.00
54262;BME280;40174;52.364;6.452;2024-01-30T06:00:18;102211.22;;;4.78;100.00
54262;BME280;40174;52.364;6.452;2024-01-30T06:02:45;102204.19;;;4.80;100.00
54262;BME280;40174;52.364;6.452;2024-01-30T06:05:13;102213.53;;;4.87;100.00
54262;BME280;40174;52.364;6.452;2024-01-30T06:07:39;102204.88;;;4.85;100.00
54262;BME280;40174;52.364;6.452;2024-01-30T06:10:07;102202.19;;;4.87;100.00
54262;BME280;40174;52.364;6.452;2024-01-30T06:12:34;102212.56;;;4.90;100.00
54262;BME280;40174;52.364;6.452;2024-01-30T06:15:01;102208.25;;;4.89;100.00
54262;BME280;40174;52.364;6.452;2024-01-30T06:17:27;102207.31;;;4.90;100.00
54262;BME280;40174;52.364;6.452;2024-01-30T06:19:54;102220.31;;;4.93;100.00
54262;BME280;40174;52.364;6.452;2024-01-30T06:22:22;102217.53;;;4.97;100.00
54262;BME280;40174;52.364;6.452;2024-01-30T06:24:49;102204.38;;;4.99;100.00
54262;BME280;40174;52.364;6.452;2024-01-30T06:27:15;102195.63;;;5.00;100.00
54262;BME280;40174;52.364;6.452;2024-01-30T06:29:43;102198.94;;;5.05;100.00
54262;BME280;40174;52.364;6.452;2024-01-30T06:32:09;102192.72;;;5.08;100.00
54262;BME280;40174;52.364;6.452;2024-01-30T06:34:36;102194.34;;;5.12;100.00
54262;BME280;40174;52.364;6.452;2024-01-30T06:37:04;102203.91;;;5.13;100.00
54262;BME280;40174;52.364;6.452;2024-01-30T06:39:32;102202.88;;;5.17;100.00
54262;BME280;40174;52.364;6.452;2024-01-30T06:41:58;102200.84;;;5.25;100.00
54262;BME280;40174;52.364;6.452;2024-01-30T06:44:25;102199.88;;;5.28;100.00
54262;BME280;40174;52.364;6.452;2024-01-30T06:46:51;102191.97;;;5.29;100.00
54262;BME280;40174;52.364;6.452;2024-01-30T06:49:18;102195.16;;;5.37;100.00
54262;BME280;40174;52.364;6.452;2024-01-30T06:51:47;102198.56;;;5.39;100.00
54262;BME280;40174;52.364;6.452;2024-01-30T06:54:13;102207.19;;;5.43;100.00
54262;BME280;40174;52.364;6.452;2024-01-30T06:56:41;102209.72;;;5.45;100.00
54262;BME280;40174;52.364;6.452;2024-01-30T06:59:08;102212.09;;;5.52;100.00
54262;BME280;40174;52.364;6.452;2024-01-30T07:01:35;102208.50;;;5.55;100.00
54262;BME280;40174;52.364;6.452;2024-01-30T07:04:01;102197.97;;;5.56;100.00
54262;BME280;40174;52.364;6.452;2024-01-30T07:06:28;102202.06;;;5.63;100.00
54262;BME280;40174;52.364;6.452;2024-01-30T07:08:54;102200.28;;;5.64;100.00
54262;BME280;40174;52.364;6.452;2024-01-30T07:11:21;102204.69;;;5.63;100.00
54262;BME280;40174;52.364;6.452;2024-01-30T07:13:51;102208.03;;;5.67;100.00
54262;BME280;40174;52.364;6.452;2024-01-30T07:16:18;102208.91;;;5.68;100.00
54262;BME280;40174;52.364;6.452;2024-01-30T07:18:44;102200.84;;;5.72;100.00
54262;BME280;40174;52.364;6.452;2024-01-30T07:21:11;102205.97;;;5.75;100.00
54262;BME280;40174;52.364;6.452;2024-01-30T07:23:38;102200.69;;;5.77;100.00
54262;BME280;40174;52.364;6.452;2024-01-30T07:26:05;102205.78;;;5.80;100.00
54262;BME280;40174;52.364;6.452;2024-01-30T07:28:31;102204.94;;;5.79;100.00
54262;BME280;40174;52.364;6.452;2024-01-30T07:31:00;102207.53;;;5.81;100.00
54262;BME280;40174;52.364;6.452;2024-01-30T07:33:27;102193.47;;;5.82;100.00
54262;BME280;40174;52.364;6.452;2024-01-30T07:35:53;102213.22;;;5.92;100.00
54262;BME280;40174;52.364;6.452;2024-01-30T07:38:20;102199.47;;;5.86;100.00
54262;BME280;40174;52.364;6.452;2024-01-30T07:40:46;102207.22;;;5.89;100.00
54262;BME280;40174;52.364;6.452;2024-01-30T07:43:13;102222.97;;;5.89;100.00
54262;BME280;40174;52.364;6.452;2024-01-30T07:45:40;102220.13;;;5.95;100.00
54262;BME280;40174;52.364;6.452;2024-01-30T07:48:08;102214.88;;;5.95;100.00
54262;BME280;40174;52.364;6.452;2024-01-30T07:50:34;102212.69;;;6.06;100.00
54262;BME280;40174;52.364;6.452;2024-01-30T07:53:02;102220.41;;;6.11;100.00
54262;BME280;40174;52.364;6.452;2024-01-30T07:55:29;102221.81;;;6.19;100.00
54262;BME280;40174;52.364;6.452;2024-01-30T07:57:57;102210.56;;;6.16;100.00
54262;BME280;40174;52.364;6.452;2024-01-30T08:00:24;102219.88;;;6.23;100.00
54262;BME280;40174;52.364;6.452;2024-01-30T08:02:53;102210.38;;;6.20;100.00
54262;BME280;40174;52.364;6.452;2024-01-30T08:05:22;102228.69;;;6.22;100.00
54262;BME280;40174;52.364;6.452;2024-01-30T08:07:49;102233.09;;;6.21;100.00
54262;BME280;40174;52.364;6.452;2024-01-30T08:10:16;102241.59;;;6.28;100.00
54262;BME280;40174;52.364;6.452;2024-01-30T08:12:44;102235.13;;;6.37;100.00
54262;BME280;40174;52.364;6.452;2024-01-30T08:15:11;102238.41;;;6.42;100.00
54262;BME280;40174;52.364;6.452;2024-01-30T08:17:38;102251.22;;;6.50;100.00
54262;BME280;40174;52.364;6.452;2024-01-30T08:20:06;102245.66;;;6.57;100.00
54262;BME280;40174;52.364;6.452;2024-01-30T08:22:35;102231.41;;;6.63;100.00
54262;BME280;40174;52.364;6.452;2024-01-30T08:25:01;102233.00;;;6.67;100.00
54262;BME280;40174;52.364;6.452;2024-01-30T08:27:28;102236.22;;;6.74;100.00
54262;BME280;40174;52.364;6.452;2024-01-30T08:29:54;102236.81;;;6.80;100.00
54262;BME280;40174;52.364;6.452;2024-01-30T08:32:21;102241.47;;;6.74;100.00
54262;BME280;40174;52.364;6.452;2024-01-30T08:34:49;102244.94;;;6.74;100.00
54262;BME280;40174;52.364;6.452;2024-01-30T08:37:16;102248.19;;;6.81;100.00
54262;BME280;40174;52.364;6.452;2024-01-30T08:39:45;102233.16;;;6.84;100.00
54262;BME280;40174;52.364;6.452;2024-01-30T08:42:12;102249.38;;;6.94;100.00
54262;BME280;40174;52.364;6.452;2024-01-30T08:44:41;102241.50;;;6.94;100.00
54262;BME280;40174;52.364;6.452;2024-01-30T08:47:08;102245.09;;;6.92;100.00
54262;BME280;40174;52.364;6.452;2024-01-30T08:49:34;102242.03;;;7.02;100.00
54262;BME280;40174;52.364;6.452;2024-01-30T08:52:01;102242.81;;;7.04;100.00
54262;BME280;40174;52.364;6.452;2024-01-30T08:54:28;102242.88;;;7.03;100.00
54262;BME280;40174;52.364;6.452;2024-01-30T08:56:56;102246.25;;;7.06;100.00
54262;BME280;40174;52.364;6.452;2024-01-30T08:59:23;102247.03;;;7.08;100.00
54262;BME280;40174;52.364;6.452;2024-01-30T09:01:50;102253.13;;;7.09;100.00
54262;BME280;40174;52.364;6.452;2024-01-30T09:04:18;102242.38;;;7.15;100.00
54262;BME280;40174;52.364;6.452;2024-01-30T09:06:45;102242.81;;;7.25;100.00
54262;BME280;40174;52.364;6.452;2024-01-30T09:09:12;102250.56;;;7.28;100.00
54262;BME280;40174;52.364;6.452;2024-01-30T09:11:39;102249.50;;;7.32;100.00
54262;BME280;40174;52.364;6.452;2024-01-30T09:14:07;102249.28;;;7.37;100.00
54262;BME280;40174;52.364;6.452;2024-01-30T09:16:34;102253.34;;;7.44;100.00
54262;BME280;40174;52.364;6.452;2024-01-30T09:19:01;102254.16;;;7.46;100.00
54262;BME280;40174;52.364;6.452;2024-01-30T09:21:28;102261.03;;;7.48;100.00
54262;BME280;40174;52.364;6.452;2024-01-30T09:23:54;102267.03;;;7.52;100.00
54262;BME280;40174;52.364;6.452;2024-01-30T09:26:27;102258.16;;;7.55;100.00
54262;BME280;40174;52.364;6.452;2024-01-30T09:28:54;102256.25;;;7.58;100.00
54262;BME280;40174;52.364;6.452;2024-01-30T09:31:22;102262.28;;;7.60;100.00
54262;BME280;40174;52.364;6.452;2024-01-30T09:33:48;102258.66;;;7.63;100.00
54262;BME280;40174;52.364;6.452;2024-01-30T09:36:16;102269.09;;;7.64;100.00
54262;BME280;40174;52.364;6.452;2024-01-30T09:38:45;102266.28;;;7.69;100.00
54262;BME280;40174;52.364;6.452;2024-01-30T09:41:12;102279.31;;;7.72;100.00
54262;BME280;40174;52.364;6.452;2024-01-30T09:43:39;102265.09;;;7.76;100.00
54262;BME280;40174;52.364;6.452;2024-01-30T09:46:08;102266.66;;;7.80;100.00
54262;BME280;40174;52.364;6.452;2024-01-30T09:48:40;102274.41;;;7.83;100.00
54262;BME280;40174;52.364;6.452;2024-01-30T09:51:08;102269.78;;;7.88;100.00
54262;BME280;40174;52.364;6.452;2024-01-30T09:53:36;102264.50;;;7.88;100.00
54262;BME280;40174;52.364;6.452;2024-01-30T09:56:04;102264.22;;;7.95;100.00
54262;BME280;40174;52.364;6.452;2024-01-30T09:58:31;102268.13;;;8.05;100.00
54262;BME280;40174;52.364;6.452;2024-01-30T10:00:58;102265.44;;;8.06;100.00
54262;BME280;40174;52.364;6.452;2024-01-30T10:03:25;102272.19;;;8.12;100.00
54262;BME280;40174;52.364;6.452;2024-01-30T10:05:54;102267.06;;;8.09;100.00
54262;BME280;40174;52.364;6.452;2024-01-30T10:08:22;102265.78;;;8.18;100.00
54262;BME280;40174;52.364;6.452;2024-01-30T10:10:49;102268.19;;;8.22;100.00
54262;BME280;40174;52.364;6.452;2024-01-30T10:13:16;102260.06;;;8.27;100.00
54262;BME280;40174;52.364;6.452;2024-01-30T10:15:44;102263.25;;;8.33;100.00
54262;BME280;40174;52.364;6.452;2024-01-30T10:18:11;102267.34;;;8.41;100.00
54262;BME280;40174;52.364;6.452;2024-01-30T10:20:38;102270.69;;;8.44;100.00
54262;BME280;40174;52.364;6.452;2024-01-30T10:23:06;102265.25;;;8.47;100.00
54262;BME280;40174;52.364;6.452;2024-01-30T10:25:33;102271.41;;;8.65;100.00
54262;BME280;40174;52.364;6.452;2024-01-30T10:28:00;102263.31;;;8.70;100.00
54262;BME280;40174;52.364;6.452;2024-01-30T10:30:26;102266.56;;;8.75;100.00
54262;BME280;40174;52.364;6.452;2024-01-30T10:32:53;102275.25;;;8.77;100.00
54262;BME280;40174;52.364;6.452;2024-01-30T10:35:20;102265.25;;;8.84;100.00
54262;BME280;40174;52.364;6.452;2024-01-30T10:37:47;102268.56;;;8.87;100.00
54262;BME280;40174;52.364;6.452;2024-01-30T10:40:15;102273.72;;;8.90;100.00
54262;BME280;40174;52.364;6.452;2024-01-30T10:42:43;102277.88;;;8.94;100.00
54262;BME280;40174;52.364;6.452;2024-01-30T10:45:11;102277.56;;;9.01;100.00
54262;BME280;40174;52.364;6.452;2024-01-30T10:47:40;102281.59;;;9.08;100.00
54262;BME280;40174;52.364;6.452;2024-01-30T10:50:08;102278.03;;;9.09;100.00
54262;BME280;40174;52.364;6.452;2024-01-30T10:52:36;102270.06;;;9.10;100.00
54262;BME280;40174;52.364;6.452;2024-01-30T10:55:04;102280.13;;;9.20;100.00
54262;BME280;40174;52.364;6.452;2024-01-30T10:57:34;102287.94;;;9.21;100.00
54262;BME280;40174;52.364;6.452;2024-01-30T11:00:03;102287.03;;;9.22;100.00
54262;BME280;40174;52.364;6.452;2024-01-30T11:02:36;102283.38;;;9.25;100.00
54262;BME280;40174;52.364;6.452;2024-01-30T11:05:05;102279.78;;;9.26;100.00
54262;BME280;40174;52.364;6.452;2024-01-30T11:07:31;102287.66;;;9.27;100.00
54262;BME280;40174;52.364;6.452;2024-01-30T11:10:02;102280.66;;;9.26;100.00
54262;BME280;40174;52.364;6.452;2024-01-30T11:12:30;102281.53;;;9.27;100.00
54262;BME280;40174;52.364;6.452;2024-01-30T11:15:05;102282.13;;;9.32;100.00
54262;BME280;40174;52.364;6.452;2024-01-30T11:17:48;102295.19;;;9.35;100.00
54262;BME280;40174;52.364;6.452;2024-01-30T11:20:18;102293.16;;;9.40;100.00
54262;BME280;40174;52.364;6.452;2024-01-30T11:22:46;102299.28;;;9.41;100.00
54262;BME280;40174;52.364;6.452;2024-01-30T11:25:14;102295.84;;;9.39;100.00
54262;BME280;40174;52.364;6.452;2024-01-30T11:27:41;102294.75;;;9.43;100.00
54262;BME280;40174;52.364;6.452;2024-01-30T11:30:10;102292.19;;;9.41;100.00
54262;BME280;40174;52.364;6.452;2024-01-30T11:32:37;102296.47;;;9.44;100.00
54262;BME280;40174;52.364;6.452;2024-01-30T11:35:04;102297.22;;;9.46;100.00
54262;BME280;40174;52.364;6.452;2024-01-30T11:37:36;102294.53;;;9.47;100.00
54262;BME280;40174;52.364;6.452;2024-01-30T11:40:04;102285.66;;;9.48;100.00
54262;BME280;40174;52.364;6.452;2024-01-30T11:42:31;102294.88;;;9.57;100.00
54262;BME280;40174;52.364;6.452;2024-01-30T11:45:00;102300.94;;;9.59;100.00
54262;BME280;40174;52.364;6.452;2024-01-30T11:47:29;102289.47;;;9.60;100.00
54262;BME280;40174;52.364;6.452;2024-01-30T11:49:56;102293.78;;;9.61;100.00
54262;BME280;40174;52.364;6.452;2024-01-30T11:52:23;102292.53;;;9.68;100.00
54262;BME280;40174;52.364;6.452;2024-01-30T11:54:50;102294.84;;;9.74;100.00
54262;BME280;40174;52.364;6.452;2024-01-30T11:57:20;102285.06;;;9.76;100.00
54262;BME280;40174;52.364;6.452;2024-01-30T11:59:46;102289.19;;;9.82;100.00
54262;BME280;40174;52.364;6.452;2024-01-30T12:02:15;102280.38;;;9.82;100.00
54262;BME280;40174;52.364;6.452;2024-01-30T12:04:44;102282.09;;;9.83;100.00
54262;BME280;40174;52.364;6.452;2024-01-30T12:07:11;102286.44;;;9.84;100.00
54262;BME280;40174;52.364;6.452;2024-01-30T12:09:38;102277.34;;;9.89;100.00
54262;BME280;40174;52.364;6.452;2024-01-30T12:12:06;102266.34;;;9.97;100.00
54262;BME280;40174;52.364;6.452;2024-01-30T12:14:38;102270.59;;;9.99;100.00
54262;BME280;40174;52.364;6.452;2024-01-30T12:17:05;102263.19;;;10.06;100.00
54262;BME280;40174;52.364;6.452;2024-01-30T12:19:34;102277.16;;;10.08;100.00
54262;BME280;40174;52.364;6.452;2024-01-30T12:22:02;102283.06;;;10.13;100.00
54262;BME280;40174;52.364;6.452;2024-01-30T12:24:30;102277.53;;;10.18;100.00
54262;BME280;40174;52.364;6.452;2024-01-30T12:26:57;102284.56;;;10.17;100.00
54262;BME280;40174;52.364;6.452;2024-01-30T12:29:24;102283.81;;;10.15;100.00
54262;BME280;40174;52.364;6.452;2024-01-30T12:31:52;102291.66;;;10.17;100.00
54262;BME280;40174;52.364;6.452;2024-01-30T12:34:19;102292.25;;;10.22;100.00
54262;BME280;40174;52.364;6.452;2024-01-30T12:36:46;102287.25;;;10.33;100.00
54262;BME280;40174;52.364;6.452;2024-01-30T12:39:15;102288.50;;;10.58;100.00
54262;BME280;40174;52.364;6.452;2024-01-30T12:41:42;102292.16;;;10.71;100.00
54262;BME280;40174;52.364;6.452;2024-01-30T12:44:08;102291.22;;;10.72;100.00
54262;BME280;40174;52.364;6.452;2024-01-30T12:46:35;102288.59;;;10.72;100.00
54262;BME280;40174;52.364;6.452;2024-01-30T12:49:02;102306.47;;;10.83;100.00
54262;BME280;40174;52.364;6.452;2024-01-30T12:51:28;102302.22;;;11.11;100.00